Time;durP1;ratioP1;P1;durP2;ratioP2;P2;SDS_P1;SDS_P2;PMS_P1;PMS_P2;Temp;Humidity;BMP_temperature;BMP_pressure;BME280_temperature;BME280_humidity;BME280_pressure;Samples;Min_cycle;Max_cycle;Signal;HPM_P1;HPM_P2
2023/03/19 00:01:54;;;;;;;18.50;15.48;;;10.80;99.90;;;;;;4993967;28;37716;-80
2023/03/19 00:04:22;;;;;;;18.15;15.27;;;10.80;99.90;;;;;;4982614;28;38183;-80
2023/03/19 00:06:50;;;;;;;18.63;15.50;;;10.80;99.90;;;;;;5013766;28;38495;-80
2023/03/19 00:09:18;;;;;;;19.23;15.00;;;10.80;99.90;;;;;;4994997;28;38424;-80
2023/03/19 00:11:47;;;;;;;15.90;13.75;;;10.80;99.90;;;;;;5009537;28;39530;-80
2023/03/19 00:14:22;;;;;;;15.80;13.75;;;10.70;99.90;;;;;;4994728;28;37704;-79
2023/03/19 00:17:03;;;;;;;16.17;14.07;;;10.70;99.90;;;;;;5011002;28;37197;-80
2023/03/19 00:19:29;;;;;;;23.63;16.30;;;10.70;99.90;;;;;;5014325;28;50044;-80
2023/03/19 00:22:02;;;;;;;16.88;13.93;;;10.60;99.90;;;;;;5015362;28;39943;-79
2023/03/19 00:24:29;;;;;;;22.45;15.93;;;10.50;99.90;;;;;;5013871;28;48152;-80
2023/03/19 00:26:59;;;;;;;19.90;15.35;;;10.50;99.90;;;;;;5004309;28;36441;-80
2023/03/19 00:29:26;;;;;;;18.13;15.30;;;10.50;99.90;;;;;;5016021;28;40205;-80
2023/03/19 00:31:53;;;;;;;18.17;14.60;;;10.50;99.90;;;;;;5017440;28;39557;-79
2023/03/19 00:34:22;;;;;;;20.60;16.23;;;10.50;99.90;;;;;;4998599;28;39436;-79
2023/03/19 00:36:49;;;;;;;18.42;16.00;;;10.50;99.90;;;;;;4992056;28;38701;-79
2023/03/19 00:39:16;;;;;;;17.58;14.82;;;10.50;99.90;;;;;;5003951;28;40457;-79
2023/03/19 00:41:49;;;;;;;17.63;14.60;;;10.50;99.90;;;;;;4988654;28;39140;-79
2023/03/19 00:44:17;;;;;;;19.08;15.95;;;10.50;99.90;;;;;;4985691;28;39360;-80
2023/03/19 00:46:44;;;;;;;16.70;14.23;;;10.50;99.90;;;;;;4987538;28;38304;-79
2023/03/19 00:49:10;;;;;;;17.45;13.65;;;10.50;99.90;;;;;;5008826;28;38159;-80
2023/03/19 00:51:42;;;;;;;22.70;14.65;;;10.50;99.90;;;;;;5009001;28;39151;-80
2023/03/19 00:54:10;;;;;;;15.65;13.88;;;10.50;99.90;;;;;;4993534;28;38448;-80
2023/03/19 00:56:39;;;;;;;15.57;13.77;;;10.50;99.90;;;;;;4996427;28;37577;-80
2023/03/19 00:59:08;;;;;;;15.05;12.23;;;10.50;99.90;;;;;;5008332;28;39705;-80
2023/03/19 01:01:35;;;;;;;12.30;11.02;;;10.50;99.90;;;;;;5015788;28;38939;-80
2023/03/19 01:04:06;;;;;;;11.60;10.07;;;10.50;99.90;;;;;;5004060;28;37897;-80
2023/03/19 01:06:32;;;;;;;10.77;9.57;;;10.50;99.90;;;;;;5009291;28;49316;-79
2023/03/19 01:09:01;;;;;;;11.32;9.63;;;10.40;99.90;;;;;;5018319;28;39908;-80
2023/03/19 01:11:27;;;;;;;13.80;10.32;;;10.40;99.90;;;;;;5003210;28;47877;-80
2023/03/19 01:13:53;;;;;;;15.27;11.90;;;10.30;99.90;;;;;;4998956;28;39779;-80
2023/03/19 01:16:20;;;;;;;15.93;12.20;;;10.20;99.90;;;;;;4996918;28;39528;-80
2023/03/19 01:18:46;;;;;;;14.60;10.68;;;10.10;99.90;;;;;;4993774;28;38846;-80
2023/03/19 01:21:13;;;;;;;19.85;12.98;;;10.00;99.90;;;;;;5012204;28;38677;-81
2023/03/19 01:23:39;;;;;;;17.95;12.07;;;10.00;99.90;;;;;;5014437;28;39017;-80
2023/03/19 01:26:18;;;;;;;18.10;12.33;;;9.90;99.90;;;;;;4992469;28;37927;-80
2023/03/19 01:28:46;;;;;;;16.77;12.93;;;9.80;99.90;;;;;;4987220;28;37616;-81
2023/03/19 01:31:12;;;;;;;21.40;14.30;;;9.70;99.90;;;;;;5014817;28;36846;-80
2023/03/19 01:33:39;;;;;;;18.43;12.60;;;9.70;99.90;;;;;;4990691;28;37985;-80
2023/03/19 01:36:06;;;;;;;19.23;14.32;;;9.60;99.90;;;;;;5008796;28;36581;-80
2023/03/19 01:38:32;;;;;;;15.10;13.27;;;9.60;99.90;;;;;;4987337;28;39626;-80
2023/03/19 01:40:59;;;;;;;19.53;14.00;;;9.50;99.90;;;;;;4996577;28;37113;-80
2023/03/19 01:43:28;;;;;;;17.77;13.73;;;9.50;99.90;;;;;;4999308;28;37975;-80
2023/03/19 01:46:10;;;;;;;20.90;15.73;;;9.50;99.90;;;;;;4990249;28;36632;-81
2023/03/19 01:48:40;;;;;;;16.60;13.98;;;9.40;99.90;;;;;;5011312;28;49724;-80
2023/03/19 01:51:09;;;;;;;19.00;13.63;;;9.40;99.90;;;;;;5015596;28;39688;-80
2023/03/19 01:53:38;;;;;;;20.97;15.30;;;9.40;99.90;;;;;;5014366;28;39394;-80
2023/03/19 01:56:11;;;;;;;20.40;14.37;;;9.30;99.90;;;;;;4993738;28;37277;-80
2023/03/19 01:58:41;;;;;;;21.93;16.87;;;9.20;99.90;;;;;;4989507;28;38736;-79
2023/03/19 02:03:43;;;;;;;18.47;14.17;;;9.10;99.90;;;;;;5001085;23;20044;-77
2023/03/19 02:06:11;;;;;;;16.27;13.30;;;9.10;99.90;;;;;;4938364;28;36339;-77
2023/03/19 02:08:37;;;;;;;18.70;15.23;;;9.00;99.90;;;;;;4939960;28;38096;-77
2023/03/19 02:11:04;;;;;;;18.87;15.47;;;8.80;99.90;;;;;;4944268;28;37596;-77
2023/03/19 02:13:30;;;;;;;20.57;14.93;;;8.80;99.90;;;;;;4946881;28;39417;-77
2023/03/19 02:15:57;;;;;;;17.90;15.10;;;8.70;99.90;;;;;;4943703;28;36321;-76
2023/03/19 02:18:24;;;;;;;19.43;16.30;;;8.80;99.90;;;;;;4948086;28;38584;-77
2023/03/19 02:21:07;;;;;;;18.43;15.53;;;8.70;99.90;;;;;;4956540;28;38451;-77
2023/03/19 02:23:54;;;;;;;16.27;13.55;;;8.60;99.90;;;;;;4942391;28;48123;-76
2023/03/19 02:26:25;;;;;;;18.97;15.07;;;8.60;99.90;;;;;;4942336;28;36431;-77
2023/03/19 02:28:52;;;;;;;23.33;16.70;;;8.70;99.90;;;;;;4944972;28;38613;-77
2023/03/19 02:31:19;;;;;;;20.97;16.37;;;8.70;99.90;;;;;;4950610;28;38090;-77
2023/03/19 02:34:02;;;;;;;20.63;17.17;;;8.70;99.90;;;;;;4954052;28;38377;-78
2023/03/19 02:36:33;;;;;;;18.87;15.90;;;8.70;99.90;;;;;;4952129;28;47127;-78
2023/03/19 02:39:02;;;;;;;26.77;19.90;;;8.90;99.90;;;;;;4943639;28;37917;-78
2023/03/19 02:41:30;;;;;;;28.30;21.33;;;9.00;99.90;;;;;;4948535;28;47139;-77
2023/03/19 02:44:00;;;;;;;26.57;19.93;;;9.10;99.90;;;;;;4952305;28;37065;-77
2023/03/19 02:46:27;;;;;;;32.63;22.60;;;9.20;99.90;;;;;;4958837;28;47854;-77
2023/03/19 02:48:53;;;;;;;22.77;18.27;;;9.20;99.90;;;;;;4959915;28;37430;-77
2023/03/19 02:51:19;;;;;;;23.23;18.07;;;9.30;99.90;;;;;;4952787;28;38526;-76
2023/03/19 02:53:45;;;;;;;26.37;20.47;;;9.30;99.90;;;;;;4954869;28;36825;-78
2023/03/19 02:56:12;;;;;;;24.83;21.03;;;9.30;99.90;;;;;;4967572;28;36219;-78
2023/03/19 02:58:38;;;;;;;32.27;24.03;;;9.40;99.90;;;;;;4956819;28;39569;-78
2023/03/19 03:01:05;;;;;;;28.63;22.87;;;9.40;99.90;;;;;;4956181;28;38566;-79
2023/03/19 03:03:31;;;;;;;29.43;23.23;;;9.40;99.90;;;;;;4968986;28;36719;-77
2023/03/19 03:05:57;;;;;;;35.53;25.80;;;9.40;99.90;;;;;;4972340;28;37584;-78
2023/03/19 03:08:23;;;;;;;36.83;29.50;;;9.40;99.90;;;;;;4975126;28;38867;-76
2023/03/19 03:10:50;;;;;;;45.87;31.93;;;9.40;99.90;;;;;;4973326;28;38349;-77
2023/03/19 03:13:16;;;;;;;37.93;30.00;;;9.30;99.90;;;;;;4972740;28;37197;-76
2023/03/19 03:15:45;;;;;;;36.20;27.63;;;9.30;99.90;;;;;;4962955;28;36383;-76
2023/03/19 03:18:11;;;;;;;46.63;32.13;;;9.30;99.90;;;;;;4969879;28;37424;-76
2023/03/19 03:20:37;;;;;;;47.97;33.07;;;9.20;99.90;;;;;;4971301;28;37026;-77
2023/03/19 03:23:03;;;;;;;52.23;33.50;;;9.10;99.90;;;;;;4970313;28;38604;-76
2023/03/19 03:25:29;;;;;;;53.07;33.37;;;9.10;99.90;;;;;;4971335;28;37705;-76
2023/03/19 03:27:56;;;;;;;49.90;32.80;;;9.10;99.90;;;;;;4971688;28;37708;-76
2023/03/19 03:30:22;;;;;;;49.77;33.53;;;9.10;99.90;;;;;;4969766;28;38820;-76
2023/03/19 03:32:48;;;;;;;56.87;33.63;;;9.10;99.90;;;;;;4967281;28;36821;-77
2023/03/19 03:35:20;;;;;;;53.97;33.70;;;9.10;99.90;;;;;;4967810;28;37403;-77
2023/03/19 03:37:47;;;;;;;55.53;34.70;;;9.10;99.90;;;;;;4968237;28;38729;-77
2023/03/19 03:40:14;;;;;;;51.80;32.80;;;9.10;99.90;;;;;;4964760;28;37231;-76
2023/03/19 03:42:44;;;;;;;55.87;34.90;;;9.10;99.90;;;;;;4962624;28;37617;-77
2023/03/19 03:45:11;;;;;;;49.00;32.03;;;9.10;99.90;;;;;;4969827;28;37419;-77
2023/03/19 03:47:38;;;;;;;45.37;31.47;;;9.00;99.90;;;;;;4979426;28;39809;-76
2023/03/19 03:50:05;;;;;;;48.57;32.83;;;9.00;99.90;;;;;;4977928;28;39009;-77
2023/03/19 03:52:32;;;;;;;56.27;33.97;;;9.00;99.90;;;;;;4969001;28;48873;-76
2023/03/19 03:54:59;;;;;;;41.33;29.43;;;9.00;99.90;;;;;;4970300;28;37245;-77
2023/03/19 03:57:26;;;;;;;41.33;30.57;;;8.90;99.90;;;;;;4976678;28;39350;-76
2023/03/19 03:59:53;;;;;;;45.53;31.03;;;8.90;99.90;;;;;;4980101;28;38597;-76
2023/03/19 04:02:19;;;;;;;44.93;30.07;;;8.80;99.90;;;;;;4998883;28;38640;-77
2023/03/19 04:04:45;;;;;;;44.00;30.30;;;8.80;99.90;;;;;;4975501;28;37277;-78
2023/03/19 04:07:11;;;;;;;39.80;29.13;;;8.80;99.90;;;;;;4971994;28;39457;-77
2023/03/19 04:09:38;;;;;;;41.67;28.67;;;8.80;99.90;;;;;;4977161;28;38146;-77
2023/03/19 04:12:04;;;;;;;48.30;31.23;;;8.80;99.90;;;;;;4979263;28;37246;-77
2023/03/19 04:14:30;;;;;;;52.33;32.53;;;8.80;99.90;;;;;;4977861;28;37298;-77
2023/03/19 04:16:56;;;;;;;35.80;27.30;;;8.80;99.90;;;;;;4973899;28;39247;-77
2023/03/19 04:19:22;;;;;;;44.23;30.73;;;8.70;99.90;;;;;;4975792;28;37982;-77
2023/03/19 04:21:48;;;;;;;39.97;28.23;;;8.70;99.90;;;;;;4965734;28;36870;-76
2023/03/19 04:24:15;;;;;;;41.13;30.00;;;8.80;99.90;;;;;;4974135;28;36493;-76
2023/03/19 04:26:41;;;;;;;45.30;29.13;;;8.80;99.90;;;;;;4976565;28;40163;-77
2023/03/19 04:29:07;;;;;;;42.30;30.33;;;8.80;99.90;;;;;;4973313;28;37442;-77
2023/03/19 04:31:34;;;;;;;43.83;29.97;;;8.80;99.90;;;;;;4976274;28;36702;-76
2023/03/19 04:34:00;;;;;;;42.63;29.57;;;8.70;99.90;;;;;;4981145;28;36343;-77
2023/03/19 04:36:26;;;;;;;43.03;29.57;;;8.70;99.90;;;;;;5004249;28;37642;-77
2023/03/19 04:38:53;;;;;;;37.43;27.93;;;8.70;99.90;;;;;;4978216;28;38905;-77
2023/03/19 04:41:19;;;;;;;43.50;27.77;;;8.70;99.90;;;;;;4979194;28;39396;-76
2023/03/19 04:43:45;;;;;;;41.77;29.27;;;8.70;99.90;;;;;;4978615;28;36374;-77
2023/03/19 04:46:11;;;;;;;41.13;28.73;;;8.60;99.90;;;;;;4985368;28;37400;-78
2023/03/19 04:48:38;;;;;;;45.60;28.63;;;8.60;99.90;;;;;;4985283;28;37557;-77
2023/03/19 04:51:07;;;;;;;41.20;28.77;;;8.60;99.90;;;;;;4976312;28;37266;-77
2023/03/19 04:53:34;;;;;;;38.80;27.93;;;8.60;99.90;;;;;;4974329;28;37754;-77
2023/03/19 04:56:02;;;;;;;56.47;31.93;;;8.60;99.90;;;;;;4979971;28;37835;-77
2023/03/19 04:58:28;;;;;;;40.83;28.23;;;8.60;99.90;;;;;;4987886;28;49448;-77
2023/03/19 05:00:54;;;;;;;43.33;30.00;;;8.60;99.90;;;;;;4981899;28;36601;-77
2023/03/19 05:03:20;;;;;;;43.63;29.73;;;8.70;99.90;;;;;;4967073;28;36218;-77
2023/03/19 05:05:47;;;;;;;50.93;31.77;;;8.70;99.90;;;;;;4979089;28;39318;-76
2023/03/19 05:08:13;;;;;;;45.73;30.73;;;8.70;99.90;;;;;;4978976;28;37238;-77
2023/03/19 05:10:39;;;;;;;41.70;30.27;;;8.80;99.90;;;;;;4979763;28;37099;-77
2023/03/19 05:13:06;;;;;;;47.20;31.83;;;8.80;99.90;;;;;;4967646;28;36580;-76
2023/03/19 05:15:32;;;;;;;47.13;32.30;;;8.80;99.90;;;;;;4976758;28;37639;-78
2023/03/19 05:17:59;;;;;;;50.60;34.40;;;8.80;99.90;;;;;;4970058;28;38603;-77
2023/03/19 05:20:25;;;;;;;61.93;38.43;;;8.80;99.90;;;;;;4974053;28;38749;-77
2023/03/19 05:22:52;;;;;;;51.77;37.60;;;8.70;99.90;;;;;;4966705;28;36740;-77
2023/03/19 05:25:18;;;;;;;58.13;37.17;;;8.70;99.90;;;;;;4969955;28;38962;-77
2023/03/19 05:27:45;;;;;;;67.10;39.30;;;8.70;99.90;;;;;;4975056;28;37097;-77
2023/03/19 05:30:11;;;;;;;60.17;35.70;;;8.70;99.90;;;;;;4976196;28;38486;-77
2023/03/19 05:32:39;;;;;;;71.57;35.10;;;8.70;99.90;;;;;;4969935;28;37430;-77
2023/03/19 05:35:05;;;;;;;96.17;39.53;;;8.70;99.90;;;;;;4976631;28;37604;-76
2023/03/19 05:37:32;;;;;;;51.03;31.07;;;8.60;99.90;;;;;;4971133;28;38201;-77
2023/03/19 05:39:58;;;;;;;54.03;29.43;;;8.50;99.90;;;;;;4966876;28;38448;-77
2023/03/19 05:42:24;;;;;;;112.43;37.70;;;8.50;99.90;;;;;;4961576;28;36228;-77
2023/03/19 05:44:50;;;;;;;47.37;29.77;;;8.50;99.90;;;;;;4970140;28;40242;-76
2023/03/19 05:47:17;;;;;;;49.27;29.67;;;8.40;99.90;;;;;;4970217;28;38060;-76
2023/03/19 05:49:43;;;;;;;64.10;33.13;;;8.40;99.90;;;;;;4963855;28;37093;-76
2023/03/19 05:52:09;;;;;;;59.73;32.00;;;8.40;99.90;;;;;;4965179;28;36469;-77
2023/03/19 05:54:35;;;;;;;68.07;34.17;;;8.40;99.90;;;;;;4964808;28;37461;-76
2023/03/19 05:57:01;;;;;;;66.63;34.20;;;8.40;99.90;;;;;;4971463;28;39591;-76
2023/03/19 05:59:27;;;;;;;83.10;36.57;;;8.40;99.90;;;;;;4969543;28;47089;-75
2023/03/19 06:01:53;;;;;;;62.27;34.00;;;8.50;99.90;;;;;;4963938;28;35872;-76
2023/03/19 06:04:20;;;;;;;66.23;35.47;;;8.40;99.90;;;;;;4961027;28;37455;-77
2023/03/19 06:06:46;;;;;;;66.17;35.50;;;8.40;99.90;;;;;;4941053;28;37662;-77
2023/03/19 06:09:12;;;;;;;85.30;39.70;;;8.50;99.90;;;;;;4971947;28;38198;-77
2023/03/19 06:11:39;;;;;;;62.23;36.53;;;8.50;99.90;;;;;;4967115;28;36365;-76
2023/03/19 06:14:06;;;;;;;66.03;37.07;;;8.50;99.90;;;;;;4973545;28;38574;-77
2023/03/19 06:16:32;;;;;;;68.87;37.70;;;8.50;99.90;;;;;;4965818;28;38577;-77
2023/03/19 06:18:58;;;;;;;68.07;37.87;;;8.50;99.90;;;;;;4963228;28;38420;-78
2023/03/19 06:21:28;;;;;;;67.40;36.53;;;8.40;99.90;;;;;;4967288;28;37758;-77
2023/03/19 06:23:55;;;;;;;62.93;37.83;;;8.40;99.90;;;;;;4977869;28;37846;-77
2023/03/19 06:26:22;;;;;;;117.93;45.80;;;8.50;99.90;;;;;;4968549;28;38345;-77
2023/03/19 06:28:48;;;;;;;71.10;39.03;;;8.50;99.90;;;;;;4946501;28;36884;-77
2023/03/19 06:31:15;;;;;;;76.07;40.90;;;8.60;99.90;;;;;;4960284;28;37332;-77
2023/03/19 06:33:43;;;;;;;69.87;39.10;;;8.50;99.90;;;;;;4965172;28;20058;-77
2023/03/19 06:36:09;;;;;;;66.30;37.83;;;8.60;99.90;;;;;;4968897;28;39007;-77
2023/03/19 06:38:35;;;;;;;72.17;41.60;;;8.60;99.90;;;;;;4968717;28;37037;-77
2023/03/19 06:41:02;;;;;;;78.43;40.73;;;8.60;99.90;;;;;;4963464;28;36264;-76
2023/03/19 06:43:28;;;;;;;104.13;46.47;;;8.70;99.90;;;;;;4968291;28;47142;-77
2023/03/19 06:45:54;;;;;;;123.93;50.67;;;8.60;99.90;;;;;;4977332;28;39127;-76
2023/03/19 06:48:20;;;;;;;132.03;54.73;;;8.60;99.90;;;;;;4948499;28;37530;-76
2023/03/19 06:50:46;;;;;;;112.50;51.47;;;8.60;99.90;;;;;;4951042;28;37841;-77
2023/03/19 06:53:13;;;;;;;136.73;52.63;;;8.60;99.90;;;;;;4970383;28;38465;-77
2023/03/19 06:55:39;;;;;;;114.77;49.13;;;8.60;99.90;;;;;;4957295;28;37130;-77
2023/03/19 06:58:06;;;;;;;115.90;48.80;;;8.70;99.90;;;;;;4962297;28;37111;-77
2023/03/19 07:00:32;;;;;;;116.87;46.43;;;8.70;99.90;;;;;;4965703;28;37205;-78
2023/03/19 07:02:59;;;;;;;122.97;49.67;;;8.70;99.90;;;;;;4968748;28;39318;-77
2023/03/19 07:05:25;;;;;;;113.90;47.27;;;8.80;99.90;;;;;;4965055;28;38284;-76
2023/03/19 07:07:51;;;;;;;130.63;48.87;;;8.80;99.90;;;;;;4969245;28;37914;-77
2023/03/19 07:10:21;;;;;;;110.93;46.67;;;8.80;99.90;;;;;;4963698;28;36253;-78
2023/03/19 07:12:47;;;;;;;131.50;48.43;;;8.80;99.90;;;;;;4962427;28;38302;-78
2023/03/19 07:15:13;;;;;;;132.70;51.50;;;8.80;99.90;;;;;;4962869;28;37172;-78
2023/03/19 07:17:40;;;;;;;116.30;46.47;;;8.80;99.90;;;;;;4966860;28;39002;-78
2023/03/19 07:20:07;;;;;;;127.37;49.03;;;8.80;99.90;;;;;;4966652;28;38478;-78
2023/03/19 07:22:33;;;;;;;113.30;44.80;;;8.90;99.90;;;;;;4961103;28;37950;-77
2023/03/19 07:24:59;;;;;;;112.73;43.57;;;8.90;99.90;;;;;;4968661;28;39444;-78
2023/03/19 07:27:28;;;;;;;119.97;45.30;;;8.90;99.90;;;;;;4965976;28;37184;-79
2023/03/19 07:29:54;;;;;;;116.83;43.70;;;8.90;99.90;;;;;;4968909;28;37260;-77
2023/03/19 07:32:22;;;;;;;141.43;43.73;;;8.90;99.90;;;;;;4967980;28;39413;-78
2023/03/19 07:34:48;;;;;;;105.23;40.03;;;8.90;99.90;;;;;;4966228;28;38577;-77
2023/03/19 07:37:15;;;;;;;96.60;39.40;;;8.80;99.90;;;;;;4965416;28;37109;-78
2023/03/19 07:39:41;;;;;;;90.47;36.77;;;8.70;99.90;;;;;;4962821;28;37101;-77
2023/03/19 07:42:07;;;;;;;89.23;36.47;;;8.80;99.90;;;;;;4966674;28;38696;-77
2023/03/19 07:44:33;;;;;;;80.03;34.30;;;8.80;99.90;;;;;;4963928;28;38888;-77
2023/03/19 07:46:59;;;;;;;80.53;33.10;;;8.80;99.90;;;;;;4958886;28;37622;-78
2023/03/19 07:49:25;;;;;;;96.80;36.73;;;8.80;99.90;;;;;;4951752;28;35211;-78
2023/03/19 07:51:52;;;;;;;94.07;34.77;;;8.90;99.90;;;;;;4961423;28;37748;-78
2023/03/19 07:54:18;;;;;;;80.63;34.13;;;8.90;99.90;;;;;;4958130;28;38876;-78
2023/03/19 07:56:44;;;;;;;86.93;36.17;;;8.80;99.90;;;;;;4959857;28;37817;-77
2023/03/19 07:59:10;;;;;;;77.00;34.63;;;8.90;99.90;;;;;;4976201;28;37770;-78
2023/03/19 08:01:36;;;;;;;87.23;36.40;;;9.00;99.90;;;;;;4961196;28;41925;-78
2023/03/19 08:04:02;;;;;;;80.37;35.00;;;8.90;99.90;;;;;;4976205;28;39252;-78
2023/03/19 08:06:28;;;;;;;77.17;34.97;;;8.90;99.90;;;;;;4969751;28;37225;-78
2023/03/19 08:08:55;;;;;;;73.60;33.87;;;8.90;99.90;;;;;;4980752;28;39158;-78
2023/03/19 08:11:21;;;;;;;89.13;36.77;;;9.10;99.90;;;;;;4980758;28;39076;-77
2023/03/19 08:13:47;;;;;;;86.20;34.57;;;9.20;99.90;;;;;;4963193;28;38923;-78
2023/03/19 08:16:13;;;;;;;84.07;32.97;;;9.20;99.90;;;;;;4980744;28;38911;-78
2023/03/19 08:18:39;;;;;;;86.20;33.47;;;9.20;99.90;;;;;;4993552;28;36560;-78
2023/03/19 08:21:06;;;;;;;85.73;34.13;;;9.20;99.90;;;;;;4991059;28;38936;-78
2023/03/19 08:23:32;;;;;;;76.87;31.67;;;9.20;99.90;;;;;;4986415;28;38558;-77
2023/03/19 08:25:58;;;;;;;75.53;32.50;;;9.30;99.90;;;;;;4998036;28;38377;-78
2023/03/19 08:28:24;;;;;;;67.07;30.40;;;9.40;99.90;;;;;;4998158;28;35945;-79
2023/03/19 08:30:50;;;;;;;73.65;29.85;;;9.50;99.90;;;;;;4967876;28;39670;-78
2023/03/19 08:33:17;;;;;;;78.35;32.15;;;9.70;99.90;;;;;;4968765;28;38637;-78
2023/03/19 08:35:43;;;;;;;65.60;29.25;;;9.90;99.90;;;;;;4960670;28;37431;-77
2023/03/19 08:38:09;;;;;;;66.43;29.33;;;9.90;99.90;;;;;;4977753;28;38003;-78
2023/03/19 08:40:36;;;;;;;70.47;28.42;;;9.90;99.90;;;;;;4966607;28;35989;-78
2023/03/19 08:43:02;;;;;;;61.20;27.42;;;10.10;99.90;;;;;;4965819;28;37239;-78
2023/03/19 08:45:29;;;;;;;59.83;27.92;;;10.10;99.90;;;;;;4965754;28;38387;-79
2023/03/19 08:47:57;;;;;;;56.22;27.23;;;10.30;99.90;;;;;;4963725;28;37590;-78
2023/03/19 08:50:23;;;;;;;54.70;25.98;;;10.40;99.90;;;;;;4968567;28;37509;-77
2023/03/19 08:52:49;;;;;;;60.33;27.70;;;10.50;99.90;;;;;;4981939;28;38352;-78
2023/03/19 08:55:16;;;;;;;64.05;27.85;;;10.60;99.90;;;;;;4992313;28;38005;-78
2023/03/19 08:57:43;;;;;;;53.17;25.92;;;10.70;99.90;;;;;;4962712;28;37784;-77
2023/03/19 09:00:09;;;;;;;58.08;27.98;;;10.80;99.90;;;;;;4991984;28;37657;-79
2023/03/19 09:02:36;;;;;;;53.38;25.50;;;10.90;99.90;;;;;;4981309;28;38227;-78
2023/03/19 09:05:02;;;;;;;55.00;26.05;;;10.80;99.90;;;;;;4979748;28;38261;-78
2023/03/19 09:07:28;;;;;;;65.22;28.30;;;10.80;99.90;;;;;;4995985;28;36847;-78
2023/03/19 09:09:54;;;;;;;54.53;27.08;;;10.80;99.90;;;;;;5006408;28;37627;-78
2023/03/19 09:12:20;;;;;;;49.70;24.50;;;10.70;99.90;;;;;;4967800;28;37767;-78
2023/03/19 09:14:46;;;;;;;43.72;23.20;;;10.70;99.90;;;;;;5003125;28;37970;-79
2023/03/19 09:17:14;;;;;;;51.53;25.77;;;10.80;99.90;;;;;;4950720;28;39241;-78
2023/03/19 09:19:41;;;;;;;50.35;24.27;;;10.90;99.90;;;;;;4965008;28;38526;-78
2023/03/19 09:22:07;;;;;;;44.42;23.25;;;11.00;99.90;;;;;;4968751;28;37630;-78
2023/03/19 09:24:33;;;;;;;46.47;22.38;;;10.90;99.90;;;;;;4977250;28;39686;-78
2023/03/19 09:26:59;;;;;;;43.45;22.77;;;10.90;99.90;;;;;;4987334;28;38465;-78
2023/03/19 09:29:25;;;;;;;41.55;23.48;;;10.80;99.90;;;;;;4987742;28;39609;-78
2023/03/19 09:31:51;;;;;;;45.13;23.65;;;10.80;99.90;;;;;;4973475;28;37033;-78
2023/03/19 09:34:17;;;;;;;44.90;24.45;;;10.70;99.90;;;;;;5004253;28;37012;-79
2023/03/19 09:36:43;;;;;;;39.97;24.02;;;10.70;99.90;;;;;;4969661;28;36373;-78
2023/03/19 09:39:09;;;;;;;40.78;24.10;;;10.80;99.90;;;;;;4984997;28;39914;-78
2023/03/19 09:41:58;;;;;;;41.00;24.48;;;10.80;99.90;;;;;;4996930;28;38422;-78
2023/03/19 09:44:40;;;;;;;43.75;24.38;;;10.80;99.90;;;;;;4983883;28;38374;-77
2023/03/19 09:47:24;;;;;;;43.65;25.23;;;11.00;99.90;;;;;;4979930;28;36643;-78
2023/03/19 09:49:53;;;;;;;41.92;25.70;;;11.00;99.90;;;;;;4981978;28;40239;-79
2023/03/19 09:52:56;;;;;;;47.67;26.45;;;11.10;99.90;;;;;;4957970;28;38670;-78
2023/03/19 09:55:23;;;;;;;42.80;25.42;;;11.20;99.90;;;;;;4973093;28;37249;-79
2023/03/19 09:57:52;;;;;;;48.72;26.13;;;11.30;99.90;;;;;;4962980;28;36329;-79
2023/03/19 10:00:26;;;;;;;46.60;26.88;;;11.20;99.90;;;;;;4961960;28;37771;-78
2023/03/19 10:03:00;;;;;;;50.42;27.63;;;11.10;99.90;;;;;;4978111;28;38476;-79
2023/03/19 10:05:30;;;;;;;45.58;26.00;;;11.10;99.90;;;;;;4983846;28;36835;-80
2023/03/19 10:08:25;;;;;;;52.70;27.45;;;11.00;99.90;;;;;;4959332;28;36688;-79
2023/03/19 10:11:03;;;;;;;41.78;25.42;;;11.10;99.90;;;;;;4931962;28;46978;-78
2023/03/19 10:14:05;;;;;;;48.22;27.60;;;11.00;99.90;;;;;;4989217;28;47441;-79
2023/03/19 10:16:33;;;;;;;44.83;27.00;;;11.10;99.90;;;;;;4977155;28;47467;-78
2023/03/19 10:19:03;;;;;;;41.42;25.02;;;11.10;99.90;;;;;;4982909;28;37649;-79
2023/03/19 10:21:43;;;;;;;37.28;24.45;;;11.10;99.90;;;;;;4968742;28;46092;-78
2023/03/19 10:24:17;;;;;;;45.42;27.00;;;11.20;99.90;;;;;;4995755;28;37568;-79
2023/03/19 10:26:46;;;;;;;47.88;28.02;;;11.20;99.90;;;;;;4970051;28;40209;-80
2023/03/19 10:29:20;;;;;;;54.58;30.48;;;11.00;99.90;;;;;;4974687;28;37604;-79
2023/03/19 10:31:46;;;;;;;46.63;27.67;;;10.90;99.90;;;;;;4964331;28;37981;-79
2023/03/19 10:34:34;;;;;;;49.40;28.40;;;11.00;99.90;;;;;;4962452;28;37680;-79
2023/03/19 10:37:20;;;;;;;48.08;28.30;;;11.10;99.90;;;;;;4977914;28;37527;-78
2023/03/19 10:39:54;;;;;;;50.53;29.48;;;11.10;99.90;;;;;;4966594;28;47433;-78
2023/03/19 10:42:29;;;;;;;49.50;28.20;;;11.20;99.90;;;;;;4995333;28;38946;-79
2023/03/19 10:45:24;;;;;;;48.30;28.73;;;11.20;99.90;;;;;;4980395;28;37414;-78
2023/03/19 10:47:51;;;;;;;42.38;28.40;;;11.10;99.90;;;;;;4980278;28;47619;-78
2023/03/19 10:50:22;;;;;;;51.60;30.15;;;11.10;99.90;;;;;;4966958;28;37726;-78
2023/03/19 10:53:21;;;;;;;50.22;30.63;;;11.20;99.90;;;;;;4985097;28;39003;-78
2023/03/19 10:55:53;;;;;;;49.08;29.33;;;11.10;99.90;;;;;;4972541;28;48325;-77
2023/03/19 10:58:24;;;;;;;55.33;28.67;;;11.20;99.90;;;;;;4971642;28;38393;-77
2023/03/19 11:01:02;;;;;;;53.00;29.38;;;11.20;99.90;;;;;;4982603;28;38343;-77
2023/03/19 11:03:55;;;;;;;50.65;27.27;;;11.20;99.90;;;;;;4984538;28;46379;-78
2023/03/19 11:06:37;;;;;;;46.97;26.25;;;11.10;99.90;;;;;;4973610;28;40453;-77
2023/03/19 11:09:06;;;;;;;43.38;23.30;;;11.30;99.90;;;;;;4977391;28;37057;-77
2023/03/19 11:11:34;;;;;;;45.15;24.35;;;11.40;99.90;;;;;;4972220;28;36395;-78
2023/03/19 11:14:37;;;;;;;37.33;22.65;;;11.60;99.90;;;;;;4966574;28;37281;-77
2023/03/19 11:17:25;;;;;;;42.45;21.55;;;11.70;99.90;;;;;;4972451;28;47464;-77
2023/03/19 11:19:57;;;;;;;45.20;23.23;;;11.70;99.90;;;;;;4976113;28;37021;-78
2023/03/19 11:22:31;;;;;;;37.28;22.27;;;11.70;99.90;;;;;;4999517;28;37508;-77
2023/03/19 11:25:13;;;;;;;42.10;23.17;;;11.90;99.90;;;;;;4964284;28;37630;-77
2023/03/19 11:27:40;;;;;;;40.70;22.57;;;11.90;99.90;;;;;;4990977;28;48414;-77
2023/03/19 11:30:15;;;;;;;37.33;22.25;;;11.90;99.90;;;;;;4991583;28;39161;-77
2023/03/19 11:33:06;;;;;;;36.25;22.58;;;11.80;99.90;;;;;;4973189;28;37195;-78
2023/03/19 11:35:55;;;;;;;33.85;20.65;;;11.80;99.90;;;;;;4985224;28;48299;-76
2023/03/19 11:38:38;;;;;;;33.15;21.13;;;11.70;99.90;;;;;;4961565;28;37443;-77
2023/03/19 11:41:22;;;;;;;36.60;22.00;;;11.90;99.90;;;;;;4989495;28;36949;-77
2023/03/19 11:44:22;;;;;;;35.13;20.40;;;11.90;99.90;;;;;;4984610;28;37644;-77
2023/03/19 11:46:53;;;;;;;36.25;21.38;;;11.90;99.90;;;;;;4958202;28;46929;-78
2023/03/19 11:49:21;;;;;;;32.55;20.45;;;11.70;99.90;;;;;;4992329;28;39106;-77
2023/03/19 11:52:00;;;;;;;32.30;19.48;;;11.90;99.90;;;;;;4970031;28;37079;-77
2023/03/19 11:54:50;;;;;;;34.90;18.33;;;12.10;99.90;;;;;;4971286;28;47520;-75
2023/03/19 11:57:51;;;;;;;28.83;18.60;;;12.70;99.90;;;;;;4970096;28;40009;-77
2023/03/19 12:00:30;;;;;;;31.17;17.95;;;12.70;99.90;;;;;;4964927;28;37903;-77
2023/03/19 12:03:17;;;;;;;35.08;19.58;;;12.60;99.90;;;;;;4980393;28;47338;-77
2023/03/19 12:05:56;;;;;;;33.55;17.60;;;12.60;99.90;;;;;;4970752;28;47382;-78
2023/03/19 12:08:22;;;;;;;27.08;17.20;;;12.70;99.90;;;;;;4970731;28;38272;-78
2023/03/19 12:10:54;;;;;;;27.83;17.63;;;12.80;99.90;;;;;;4965986;28;37483;-77
2023/03/19 12:13:48;;;;;;;31.98;17.23;;;13.10;99.90;;;;;;4966346;28;37515;-77
2023/03/19 12:16:35;;;;;;;24.25;15.48;;;13.40;99.90;;;;;;4970682;28;38207;-77
2023/03/19 12:19:23;;;;;;;25.55;15.13;;;13.10;99.90;;;;;;4966089;28;38662;-76
2023/03/19 12:22:04;;;;;;;19.27;13.15;;;13.70;99.90;;;;;;4967180;28;37777;-77
2023/03/19 12:24:44;;;;;;;21.92;12.50;;;14.20;99.90;;;;;;4981776;28;46295;-79
2023/03/19 12:27:19;;;;;;;18.50;12.10;;;14.30;99.90;;;;;;4991383;28;38148;-77
2023/03/19 12:30:16;;;;;;;16.98;11.50;;;14.00;99.90;;;;;;4974993;28;38041;-78
2023/03/19 12:33:02;;;;;;;14.00;10.35;;;13.80;99.90;;;;;;4979754;28;47322;-77
2023/03/19 12:35:37;;;;;;;22.25;11.88;;;13.80;99.90;;;;;;4974981;28;48057;-77
2023/03/19 12:38:44;;;;;;;18.88;11.70;;;13.70;99.90;;;;;;4973197;28;38110;-79
2023/03/19 12:41:18;;;;;;;15.02;10.63;;;13.70;99.90;;;;;;4914167;28;40273;-79
2023/03/19 12:43:52;;;;;;;17.05;11.73;;;13.90;99.90;;;;;;4982476;28;37465;-77
2023/03/19 12:46:38;;;;;;;18.15;11.98;;;13.80;99.90;;;;;;4992308;28;38094;-78
2023/03/19 12:49:29;;;;;;;17.45;12.20;;;13.80;99.90;;;;;;4989162;28;36703;-79